Time;durP1;ratioP1;P1;durP2;ratioP2;P2;SDS_P1;SDS_P2;PMS_P1;PMS_P2;Temp;Humidity;BMP_temperature;BMP_pressure;BME280_temperature;BME280_humidity;BME280_pressure;Samples;Min_cycle;Max_cycle;Signal;HPM_P1;HPM_P2
2022/08/18 00:00:36;;;;;;;20.10;12.17;;;;;;;17.52;100.00;100447.25;6037605;28;20045;-64
2022/08/18 00:03:31;;;;;;;17.90;11.90;;;;;;;17.26;100.00;100442.53;6035886;28;20073;-65
2022/08/18 00:06:27;;;;;;;21.15;12.23;;;;;;;17.09;100.00;100426.97;6041731;28;20041;-65
2022/08/18 00:13:15;;;;;;;18.15;11.38;;;;;;;17.23;100.00;100439.41;6045497;28;20042;-64
2022/08/18 00:16:10;;;;;;;17.13;11.67;;;;;;;17.08;100.00;100447.56;6043186;28;20630;-65
2022/08/18 00:19:05;;;;;;;18.10;12.13;;;;;;;16.98;100.00;100427.50;6050071;28;20034;-65
2022/08/18 00:22:00;;;;;;;19.73;12.17;;;;;;;17.07;100.00;100445.06;6040846;28;20034;-64
2022/08/18 00:24:57;;;;;;;17.23;11.03;;;;;;;17.20;100.00;100450.56;6041024;28;20084;-65
2022/08/18 00:27:52;;;;;;;19.05;10.48;;;;;;;17.18;100.00;100441.84;6048547;28;20029;-63
2022/08/18 00:30:47;;;;;;;13.77;9.17;;;;;;;17.38;100.00;100448.19;6031392;28;20030;-65
2022/08/18 00:33:43;;;;;;;13.20;9.43;;;;;;;17.35;100.00;100445.06;6035033;28;20085;-64
2022/08/18 00:36:38;;;;;;;15.30;9.57;;;;;;;17.54;99.64;100447.91;6046761;28;20481;-65
2022/08/18 00:39:34;;;;;;;12.80;8.48;;;;;;;17.70;98.54;100444.91;6049431;28;20034;-64
2022/08/18 00:42:30;;;;;;;15.40;8.75;;;;;;;17.68;97.16;100446.97;6040615;28;20026;-64
2022/08/18 00:45:31;;;;;;;16.77;8.10;;;;;;;17.36;96.09;100447.56;6047820;28;20109;-64
2022/08/18 00:48:26;;;;;;;12.65;7.95;;;;;;;17.18;96.50;100449.91;6047407;28;20029;-65
2022/08/18 00:51:27;;;;;;;11.90;7.27;;;;;;;17.17;97.03;100458.97;6036551;28;20042;-64
2022/08/18 00:54:25;;;;;;;12.10;7.53;;;;;;;17.16;97.17;100449.28;6056790;28;20038;-64
2022/08/18 00:57:22;;;;;;;13.25;7.75;;;;;;;17.29;97.55;100452.03;6046905;28;20381;-64
2022/08/18 01:00:17;;;;;;;11.95;7.28;;;;;;;17.35;97.19;100455.78;6048919;28;20037;-64
2022/08/18 01:03:15;;;;;;;12.38;6.65;;;;;;;17.17;95.79;100456.31;6034076;28;20436;-64
2022/08/18 01:06:16;;;;;;;12.68;7.10;;;;;;;17.17;96.75;100469.69;6044566;28;20033;-64
2022/08/18 01:09:12;;;;;;;12.48;6.60;;;;;;;17.48;96.67;100478.16;6057369;28;20030;-64
2022/08/18 01:12:08;;;;;;;14.67;7.60;;;;;;;17.60;95.56;100457.84;6042851;28;20108;-65
2022/08/18 01:15:04;;;;;;;12.30;7.45;;;;;;;17.59;94.85;100469.59;6039810;28;20277;-64
2022/08/18 01:27:51;;;;;;;11.65;7.35;;;;;;;17.82;94.10;100458.59;6040482;28;20042;-64
2022/08/18 01:30:49;;;;;;;11.40;7.18;;;;;;;18.01;93.97;100457.03;6041977;28;20469;-64
2022/08/18 01:33:44;;;;;;;10.65;6.32;;;;;;;17.69;93.89;100459.31;6038302;28;20037;-64
2022/08/18 01:36:40;;;;;;;13.13;6.90;;;;;;;17.50;94.56;100460.00;6040906;28;20030;-65
2022/08/18 01:39:37;;;;;;;12.05;6.38;;;;;;;17.28;96.26;100450.41;6034825;28;20091;-64
2022/08/18 01:42:34;;;;;;;12.43;7.03;;;;;;;16.96;96.72;100446.44;6040302;28;20052;-64
2022/08/18 01:45:32;;;;;;;13.43;6.95;;;;;;;16.96;98.36;100440.28;6044598;28;20276;-64
2022/08/18 01:48:28;;;;;;;13.38;7.88;;;;;;;17.40;98.34;100443.47;6042079;28;20034;-64
2022/08/18 01:51:23;;;;;;;14.32;8.00;;;;;;;17.55;97.61;100446.91;6042202;28;20089;-64
2022/08/18 01:54:18;;;;;;;15.83;8.43;;;;;;;17.21;96.57;100460.22;6039897;28;20390;-64
2022/08/18 01:57:15;;;;;;;13.83;8.23;;;;;;;17.17;97.19;100456.31;6043278;28;20284;-63
2022/08/18 02:00:13;;;;;;;18.92;9.82;;;;;;;17.37;96.82;100453.72;6036005;28;20034;-63
2022/08/18 02:03:11;;;;;;;15.10;9.32;;;;;;;17.93;96.53;100467.94;6034314;28;20038;-64
2022/08/18 02:06:10;;;;;;;14.23;9.20;;;;;;;17.89;95.98;100459.44;6032454;28;21893;-64
2022/08/18 02:09:06;;;;;;;15.85;10.40;;;;;;;17.94;95.48;100466.91;6035912;28;20038;-64
2022/08/18 02:12:02;;;;;;;17.60;9.13;;;;;;;18.13;94.75;100444.66;6028568;28;20044;-64
2022/08/18 02:14:57;;;;;;;17.35;9.93;;;;;;;18.14;94.08;100457.06;6047968;28;20452;-64
2022/08/18 02:17:52;;;;;;;17.55;9.63;;;;;;;17.87;94.39;100457.97;6044996;28;20033;-64
2022/08/18 02:20:48;;;;;;;17.90;9.23;;;;;;;17.67;94.79;100461.38;6040840;28;20038;-64
2022/08/18 02:23:44;;;;;;;14.38;9.27;;;;;;;18.09;96.08;100462.22;6041308;28;20026;-63
2022/08/18 02:26:42;;;;;;;16.70;9.93;;;;;;;18.24;94.24;100457.50;6034032;28;20532;-64
2022/08/18 02:29:37;;;;;;;15.07;9.48;;;;;;;18.10;93.46;100450.47;6040251;28;20038;-64
2022/08/18 02:32:33;;;;;;;13.00;8.40;;;;;;;18.06;93.01;100470.66;6044350;28;20810;-64
2022/08/18 02:35:28;;;;;;;14.07;9.02;;;;;;;18.31;94.22;100464.56;6043244;28;20183;-63
2022/08/18 02:38:23;;;;;;;13.53;8.73;;;;;;;18.40;93.63;100479.44;6044044;28;20049;-64
2022/08/18 02:41:19;;;;;;;12.83;8.77;;;;;;;18.12;91.79;100459.97;6045619;28;20113;-64
2022/08/18 02:44:14;;;;;;;15.18;8.48;;;;;;;17.91;91.79;100456.56;6039862;28;20410;-64
2022/08/18 02:47:10;;;;;;;12.50;7.60;;;;;;;17.81;94.46;100479.22;6043123;28;20484;-63
2022/08/18 02:50:06;;;;;;;15.20;8.50;;;;;;;17.32;94.27;100465.06;6045134;28;20034;-63
2022/08/18 02:53:01;;;;;;;15.48;8.40;;;;;;;17.02;95.98;100471.63;6042512;28;20029;-64
2022/08/18 02:56:23;;;;;;;14.00;8.40;;;;;;;16.85;96.51;100464.91;6046428;28;20030;-64
2022/08/18 02:59:24;;;;;;;13.50;8.85;;;;;;;16.96;97.53;100453.66;6043050;28;20285;-64
2022/08/18 03:02:19;;;;;;;13.07;8.48;;;;;;;16.92;98.33;100460.41;6041248;28;20049;-64
2022/08/18 03:05:15;;;;;;;14.00;8.38;;;;;;;17.09;98.26;100462.59;6039721;28;20018;-64
2022/08/18 03:08:10;;;;;;;14.70;8.93;;;;;;;17.90;98.42;100462.94;6042126;28;20030;-63
2022/08/18 03:11:05;;;;;;;14.90;8.98;;;;;;;17.73;94.96;100465.97;6033389;28;20030;-64
2022/08/18 03:14:01;;;;;;;14.07;7.97;;;;;;;17.32;95.16;100483.81;6039212;28;20030;-63
2022/08/18 03:16:57;;;;;;;15.65;9.20;;;;;;;17.10;96.59;100500.97;6031150;28;20062;-64
2022/08/18 03:19:53;;;;;;;16.27;8.75;;;;;;;16.78;97.08;100477.38;6044827;28;20037;-64
2022/08/18 03:22:48;;;;;;;14.55;8.65;;;;;;;16.75;98.09;100497.34;6027216;28;20037;-64
2022/08/18 03:25:46;;;;;;;13.60;8.82;;;;;;;16.58;99.11;100504.78;6035765;28;20027;-63
2022/08/18 03:28:44;;;;;;;15.43;8.82;;;;;;;16.64;99.30;100484.47;6037925;28;20077;-64
2022/08/18 03:31:41;;;;;;;16.60;9.63;;;;;;;16.45;99.59;100493.09;6027865;28;20030;-64
2022/08/18 03:34:36;;;;;;;18.05;9.73;;;;;;;16.40;99.83;100493.66;6041487;28;20577;-64
2022/08/18 03:37:32;;;;;;;18.13;9.73;;;;;;;16.56;100.00;100509.53;6035056;28;20034;-64
2022/08/18 03:40:27;;;;;;;17.95;9.75;;;;;;;17.05;99.78;100504.22;6043581;28;20034;-63
2022/08/18 03:43:23;;;;;;;17.80;10.37;;;;;;;16.90;98.39;100489.25;6029927;28;20588;-64
2022/08/18 03:46:20;;;;;;;16.88;10.00;;;;;;;16.72;98.44;100488.84;6038111;28;20042;-64
2022/08/18 03:49:17;;;;;;;19.27;10.27;;;;;;;16.95;98.71;100482.31;6031445;28;20435;-64
2022/08/18 03:52:12;;;;;;;16.40;10.15;;;;;;;16.73;98.06;100482.50;6039399;28;20045;-65
2022/08/18 03:55:08;;;;;;;17.03;9.17;;;;;;;16.56;99.06;100485.41;6042587;28;20402;-64
2022/08/18 03:58:03;;;;;;;18.73;10.75;;;;;;;16.44;99.28;100494.94;6040586;28;20034;-64
2022/08/18 04:01:00;;;;;;;19.90;10.90;;;;;;;16.61;100.00;100504.41;6035618;28;20109;-64
2022/08/18 04:03:59;;;;;;;22.17;11.98;;;;;;;16.67;100.00;100514.38;6036964;28;20042;-64
2022/08/18 04:06:58;;;;;;;18.80;10.43;;;;;;;16.65;100.00;100507.56;6041329;28;20114;-64
2022/08/18 04:09:54;;;;;;;20.17;11.20;;;;;;;16.77;100.00;100503.34;6028783;28;20202;-64
2022/08/18 04:12:49;;;;;;;20.20;11.43;;;;;;;16.79;100.00;100519.22;6039426;28;20085;-63
2022/08/18 04:15:44;;;;;;;20.67;11.57;;;;;;;16.55;100.00;100517.75;6043467;28;20469;-64
2022/08/18 04:18:39;;;;;;;20.63;12.33;;;;;;;16.37;100.00;100518.13;6043661;28;20049;-64
2022/08/18 04:21:38;;;;;;;19.77;11.93;;;;;;;16.26;100.00;100518.59;6038491;28;20038;-64
2022/08/18 04:24:33;;;;;;;20.80;12.27;;;;;;;16.17;100.00;100521.59;6026479;28;20030;-64
2022/08/18 04:27:29;;;;;;;19.50;12.23;;;;;;;16.09;100.00;100527.84;6038957;28;20033;-64
2022/08/18 04:30:24;;;;;;;23.45;13.45;;;;;;;15.98;100.00;100513.09;6031862;28;20061;-64
2022/08/18 04:33:19;;;;;;;26.80;13.13;;;;;;;15.99;100.00;100520.13;6042660;28;20041;-64
2022/08/18 04:36:15;;;;;;;27.90;13.45;;;;;;;16.06;100.00;100520.22;6039975;28;20040;-64
2022/08/18 04:39:12;;;;;;;24.52;12.95;;;;;;;16.01;100.00;100515.41;6040187;28;20468;-64
2022/08/18 04:42:07;;;;;;;25.35;14.02;;;;;;;16.07;100.00;100519.19;6035778;28;20031;-63
2022/08/18 04:45:05;;;;;;;25.17;14.80;;;;;;;16.14;100.00;100530.81;6035906;28;20037;-63
2022/08/18 04:48:00;;;;;;;23.15;14.25;;;;;;;16.19;100.00;100539.13;6027891;28;20034;-64
2022/08/18 04:50:56;;;;;;;29.93;14.43;;;;;;;16.20;100.00;100526.56;6038589;28;20032;-63
2022/08/18 04:53:51;;;;;;;25.60;13.30;;;;;;;16.19;100.00;100523.06;6025186;28;20057;-64
2022/08/18 04:56:46;;;;;;;26.63;13.97;;;;;;;16.27;100.00;100528.31;6044415;28;20084;-64
2022/08/18 04:59:45;;;;;;;25.87;13.53;;;;;;;16.36;100.00;100518.31;6045589;28;20302;-64
2022/08/18 05:02:40;;;;;;;26.95;14.63;;;;;;;16.69;100.00;100524.88;6038461;28;20429;-64
2022/08/18 05:05:36;;;;;;;28.33;15.57;;;;;;;16.86;100.00;100526.31;6036440;28;20092;-64
2022/08/18 05:08:31;;;;;;;25.27;14.40;;;;;;;16.96;100.00;100526.00;6032728;28;20150;-64
2022/08/18 05:11:30;;;;;;;27.13;14.35;;;;;;;17.21;100.00;100535.28;6035477;28;20033;-64
2022/08/18 05:14:26;;;;;;;25.23;14.25;;;;;;;17.42;100.00;100527.19;6031537;28;20560;-64
2022/08/18 05:17:22;;;;;;;31.25;15.32;;;;;;;17.57;100.00;100529.81;6047730;28;20044;-64
2022/08/18 05:20:19;;;;;;;29.73;15.00;;;;;;;17.92;99.30;100522.59;6036953;28;20821;-64
2022/08/18 05:23:15;;;;;;;26.55;15.32;;;;;;;18.20;97.94;100526.06;6048793;28;20033;-64
2022/08/18 05:26:15;;;;;;;29.45;15.68;;;;;;;18.55;95.69;100518.78;6039633;28;20060;-63
2022/08/18 05:29:10;;;;;;;27.48;15.75;;;;;;;18.87;93.72;100513.47;6036845;28;20492;-65
2022/08/18 05:32:06;;;;;;;26.20;15.57;;;;;;;19.01;92.53;100525.06;6046639;28;20105;-64
2022/08/18 05:35:04;;;;;;;27.92;15.27;;;;;;;19.28;92.11;100517.84;6044819;28;20037;-64
2022/08/18 05:38:38;;;;;;;28.25;16.25;;;;;;;19.58;89.86;100521.78;6038772;28;20056;-64
2022/08/18 05:41:37;;;;;;;26.25;16.08;;;;;;;20.08;88.31;100528.31;6043860;28;20120;-64
2022/08/18 05:44:40;;;;;;;24.73;14.93;;;;;;;20.31;87.70;100530.50;6039923;28;20120;-64
2022/08/18 05:47:37;;;;;;;29.08;16.67;;;;;;;20.23;86.90;100522.63;6037326;28;20813;-64
2022/08/18 05:50:34;;;;;;;28.58;16.73;;;;;;;20.15;87.52;100534.47;6042754;28;20044;-64
2022/08/18 05:56:47;;;;;;;26.77;15.85;;;;;;;20.27;86.42;100538.22;6035986;28;20456;-64
2022/08/18 05:59:44;;;;;;;28.33;16.42;;;;;;;20.31;86.00;100535.88;6039307;28;20034;-63
2022/08/18 06:02:46;;;;;;;28.17;16.48;;;;;;;20.50;85.61;100537.66;6039300;28;20033;-64
2022/08/18 06:05:57;;;;;;;26.45;14.55;;;;;;;20.55;85.37;100522.50;6046567;28;20041;-64
2022/08/18 06:08:58;;;;;;;26.92;16.25;;;;;;;20.93;83.36;100543.22;6042806;28;20030;-64
2022/08/18 06:12:04;;;;;;;24.23;15.50;;;;;;;20.76;84.08;100549.13;6039391;28;20038;-65
2022/08/18 06:15:38;;;;;;;28.67;16.88;;;;;;;20.85;84.71;100557.78;6041237;28;20026;-64
2022/08/18 06:18:56;;;;;;;29.05;16.10;;;;;;;21.04;83.54;100559.53;6034186;28;20041;-63
2022/08/18 06:21:58;;;;;;;27.52;14.75;;;;;;;21.35;81.16;100553.34;6039329;28;20041;-64
2022/08/18 06:25:19;;;;;;;26.83;14.63;;;;;;;21.41;80.69;100540.84;6044622;28;20030;-64
2022/08/18 06:28:15;;;;;;;24.08;14.55;;;;;;;21.58;80.80;100552.72;6036781;28;20058;-64
2022/08/18 06:31:29;;;;;;;31.70;14.43;;;;;;;21.57;80.93;100549.19;6052668;28;20038;-64
2022/08/18 06:34:44;;;;;;;27.67;14.75;;;;;;;21.90;79.94;100557.00;6055561;28;20231;-64
2022/08/18 06:41:11;;;;;;;25.52;14.65;;;;;;;21.73;80.61;100574.78;6043389;28;20065;-64
2022/08/18 06:44:12;;;;;;;25.13;14.63;;;;;;;21.79;79.80;100563.13;6043111;28;20038;-64
2022/08/18 06:47:25;;;;;;;22.25;14.38;;;;;;;21.74;79.76;100579.16;6043373;28;20034;-64
2022/08/18 06:50:29;;;;;;;24.77;14.88;;;;;;;21.93;78.31;100573.56;6045232;28;20042;-65
2022/08/18 06:53:51;;;;;;;24.38;14.43;;;;;;;22.22;78.52;100582.84;6043790;28;20033;-65
2022/08/18 06:56:49;;;;;;;28.80;16.85;;;;;;;22.01;78.65;100580.59;6045008;28;20033;-64
2022/08/18 06:59:55;;;;;;;23.95;15.25;;;;;;;21.87;79.30;100593.41;6043416;28;20648;-63
2022/08/18 07:03:06;;;;;;;29.05;16.30;;;;;;;22.17;79.76;100593.50;6045620;28;20066;-64
2022/08/18 07:06:20;;;;;;;28.63;16.50;;;;;;;22.06;78.41;100594.25;6046176;28;20030;-64
2022/08/18 07:09:32;;;;;;;26.27;15.85;;;;;;;22.03;78.02;100591.97;6043736;28;20088;-64
2022/08/18 07:12:28;;;;;;;25.25;16.33;;;;;;;22.11;77.68;100601.66;6038730;28;20037;-63
2022/08/18 07:15:24;;;;;;;25.85;15.95;;;;;;;22.28;77.99;100600.03;6036859;28;20034;-64
2022/08/18 07:18:27;;;;;;;23.70;15.98;;;;;;;22.51;75.57;100600.16;6023764;28;20034;-64
2022/08/18 07:21:31;;;;;;;27.02;15.93;;;;;;;22.32;76.85;100603.91;6037691;28;20030;-63
2022/08/18 07:24:30;;;;;;;25.50;16.10;;;;;;;22.10;76.91;100595.44;6042918;28;20514;-64
2022/08/18 07:27:48;;;;;;;25.65;16.77;;;;;;;22.40;76.48;100604.44;6037978;28;20045;-64
2022/08/18 07:30:44;;;;;;;28.63;16.88;;;;;;;22.19;77.12;100602.19;6036042;28;20081;-63
2022/08/18 07:33:41;;;;;;;33.35;18.25;;;;;;;21.97;77.78;100605.53;6038569;28;20034;-64
2022/08/18 07:37:01;;;;;;;33.13;18.67;;;;;;;21.71;78.81;100601.19;6039314;28;20644;-64
2022/08/18 07:40:11;;;;;;;31.40;19.63;;;;;;;21.57;79.27;100600.47;6039772;28;20088;-64
2022/08/18 07:43:26;;;;;;;35.53;20.38;;;;;;;21.60;80.47;100610.00;6035980;28;20116;-63
2022/08/18 07:46:29;;;;;;;34.13;20.75;;;;;;;21.70;80.24;100605.75;6038558;28;20359;-64
2022/08/18 07:49:29;;;;;;;38.05;21.13;;;;;;;21.59;80.22;100611.03;6038128;28;20042;-64
2022/08/18 07:52:29;;;;;;;37.30;21.70;;;;;;;21.74;79.29;100611.56;6043986;28;20034;-64
2022/08/18 07:55:30;;;;;;;46.15;24.85;;;;;;;21.78;78.80;100624.38;6037460;28;20041;-64
2022/08/18 07:58:36;;;;;;;47.08;27.27;;;;;;;21.59;78.96;100640.75;6030756;28;20038;-64
2022/08/18 08:01:45;;;;;;;43.03;26.00;;;;;;;21.55;79.39;100623.34;6040264;28;20367;-64
2022/08/18 08:05:09;;;;;;;45.67;27.17;;;;;;;21.43;79.79;100634.00;6042488;28;20040;-64
2022/08/18 08:08:19;;;;;;;45.75;26.70;;;;;;;21.37;80.16;100634.88;6045272;28;20075;-64
2022/08/18 08:12:03;;;;;;;48.47;26.02;;;;;;;21.15;80.48;100623.59;6038356;28;20037;-64
2022/08/18 08:15:08;;;;;;;44.60;25.08;;;;;;;21.04;81.38;100636.91;6022457;28;20049;-63
2022/08/18 08:18:11;;;;;;;44.22;23.77;;;;;;;21.06;80.99;100638.34;6041312;28;20037;-64
2022/08/18 08:21:13;;;;;;;47.15;26.08;;;;;;;21.07;80.94;100626.56;6041139;28;20030;-64
2022/08/18 08:24:19;;;;;;;47.20;26.52;;;;;;;21.39;80.83;100634.69;6038907;28;20041;-64
2022/08/18 08:27:15;;;;;;;;;;;;;;;21.90;78.66;100633.44;6059384;28;20113;-64
2022/08/18 08:30:16;;;;;;;44.25;24.45;;;;;;;22.39;76.58;100619.00;6042859;28;19920;-64
2022/08/18 08:33:22;;;;;;;47.88;26.52;;;;;;;22.69;75.31;100621.00;6042087;28;20121;-63
2022/08/18 08:36:27;;;;;;;41.40;23.67;;;;;;;23.41;73.16;100625.41;6042143;28;20029;-63
2022/08/18 08:39:33;;;;;;;42.47;24.20;;;;;;;23.17;71.21;100613.66;6050405;28;20053;-63
2022/08/18 08:42:39;;;;;;;43.97;26.45;;;;;;;22.70;73.53;100620.75;6064315;28;20034;-64
2022/08/18 08:45:43;;;;;;;43.78;25.38;;;;;;;22.61;73.81;100618.56;6044573;28;20179;-64
2022/08/18 08:48:43;;;;;;;44.97;27.15;;;;;;;22.45;74.03;100631.63;6047910;28;20038;-63
2022/08/18 08:51:42;;;;;;;48.13;26.65;;;;;;;;;;6040853;28;20758;-63
2022/08/18 08:54:44;;;;;;;50.28;28.48;;;;;;;22.82;72.77;100631.63;6039586;28;20520;-62
2022/08/18 08:58:07;;;;;;;46.92;27.58;;;;;;;22.48;72.67;100636.59;6045792;28;20548;-64
2022/08/18 09:01:03;;;;;;;47.65;25.77;;;;;;;22.05;73.79;100634.97;6044015;28;20452;-64
2022/08/18 09:04:12;;;;;;;50.78;27.73;;;;;;;21.92;74.81;100631.34;6046946;28;20025;-64
2022/08/18 09:07:39;;;;;;;46.28;25.65;;;;;;;22.29;74.01;100631.38;6045268;28;20029;-63
2022/08/18 09:10:49;;;;;;;45.97;25.02;;;;;;;22.34;72.76;100629.66;6035347;28;20084;-63
2022/08/18 09:13:55;;;;;;;40.42;22.48;;;;;;;22.55;71.97;100633.81;6029332;28;20033;-63
2022/08/18 09:17:12;;;;;;;37.55;20.92;;;;;;;22.71;71.53;100627.00;6060054;28;20042;-64
2022/08/18 09:20:22;;;;;;;37.22;20.13;;;;;;;22.81;70.71;100632.69;6060511;28;20413;-64
2022/08/18 09:23:29;;;;;;;35.00;20.83;;;;;;;22.98;69.15;100620.19;6046698;28;20848;-64
2022/08/18 09:26:34;;;;;;;32.47;18.42;;;;;;;22.80;70.35;100639.16;6041204;28;20026;-64
2022/08/18 09:29:57;;;;;;;32.15;17.80;;;;;;;22.82;69.83;100627.06;6035035;28;20100;-64
2022/08/18 09:33:19;;;;;;;30.77;16.75;;;;;;;23.25;68.89;100640.41;6040752;28;20468;-64
2022/08/18 09:36:29;;;;;;;30.73;17.95;;;;;;;23.51;65.84;100631.91;6031251;28;20113;-63
2022/08/18 09:42:53;;;;;;;32.78;18.05;;;;;;;23.82;65.58;100622.66;6037281;28;20029;-64
2022/08/18 09:45:59;;;;;;;;;;;;;;;24.08;64.59;100629.50;6059584;28;20037;-64
2022/08/18 09:49:14;;;;;;;;;;;;;;;24.49;63.33;100629.34;6041271;28;19967;-64
2022/08/18 09:52:21;;;;;;;27.40;14.43;;;;;;;24.31;64.18;100625.94;6044766;28;19921;-64
2022/08/18 09:55:16;;;;;;;27.33;14.73;;;;;;;24.41;63.71;100631.59;6033866;28;20053;-64
2022/08/18 09:58:25;;;;;;;24.60;14.55;;;;;;;24.61;63.48;100626.59;6036260;28;20466;-63
2022/08/18 10:01:30;;;;;;;23.63;14.70;;;;;;;24.88;63.06;100638.56;6037251;28;20046;-65
2022/08/18 10:04:27;;;;;;;;;;;;;;;24.96;60.62;100640.91;6039915;28;20140;-64
2022/08/18 10:07:38;;;;;;;22.50;13.98;;;;;;;25.05;60.63;100644.06;6058608;28;19913;-64
2022/08/18 10:10:48;;;;;;;22.85;13.93;;;;;;;25.14;60.72;100637.19;6054801;28;20036;-65
2022/08/18 10:14:11;;;;;;;24.15;15.45;;;;;;;25.03;60.99;100641.56;6034867;28;20053;-64
2022/08/18 10:17:20;;;;;;;23.38;14.52;;;;;;;25.36;60.27;100651.69;6043116;28;20034;-64
2022/08/18 10:20:20;;;;;;;21.75;14.20;;;;;;;24.89;61.70;100639.41;6055726;28;20038;-63
2022/08/18 10:23:46;;;;;;;25.50;14.80;;;;;;;24.70;62.80;100638.72;6055946;28;20034;-64
2022/08/18 10:26:41;;;;;;;21.73;13.07;;;;;;;24.73;61.93;100641.78;6037633;28;20033;-64
2022/08/18 10:29:40;;;;;;;26.95;13.80;;;;;;;24.72;62.52;100636.59;6034079;28;20109;-63
2022/08/18 10:32:42;;;;;;;19.30;12.63;;;;;;;24.81;62.37;100646.84;6040987;28;20457;-64
2022/08/18 10:35:39;;;;;;;19.42;12.50;;;;;;;24.66;62.68;100645.69;6027877;28;20022;-64
2022/08/18 10:38:40;;;;;;;23.40;13.13;;;;;;;24.36;63.35;100645.88;6037296;28;20075;-64
2022/08/18 10:41:39;;;;;;;20.33;13.27;;;;;;;24.22;63.99;100639.03;6040574;28;20038;-63
2022/08/18 10:44:41;;;;;;;23.88;14.18;;;;;;;24.32;64.33;100644.72;6039365;28;20433;-64
2022/08/18 10:47:36;;;;;;;21.77;13.88;;;;;;;24.31;64.53;100639.50;6042881;28;20045;-64
2022/08/18 10:51:06;;;;;;;24.60;15.52;;;;;;;24.41;64.16;100624.28;6039104;28;20042;-65
2022/08/18 10:54:21;;;;;;;24.88;15.65;;;;;;;24.69;63.67;100628.94;6040699;28;20041;-64
2022/08/18 10:57:51;;;;;;;25.60;15.43;;;;;;;25.13;61.82;100641.78;6040290;28;20044;-63
2022/08/18 11:01:02;;;;;;;26.85;15.48;;;;;;;25.37;59.91;100647.91;6035803;28;20026;-63
2022/08/18 11:04:10;;;;;;;27.02;13.85;;;;;;;25.37;61.22;100637.88;6058813;28;20107;-64
2022/08/18 11:07:14;;;;;;;22.02;14.40;;;;;;;25.84;60.42;100633.00;6041757;28;20052;-64
2022/08/18 11:10:22;;;;;;;21.17;13.43;;;;;;;26.24;57.52;100635.53;6046216;28;20680;-64
2022/08/18 11:13:44;;;;;;;24.58;14.73;;;;;;;26.10;57.74;100646.97;6056513;28;20048;-64
2022/08/18 11:16:48;;;;;;;23.13;13.63;;;;;;;26.21;57.95;100643.34;6033131;28;20041;-64
2022/08/18 11:19:45;;;;;;;20.90;14.38;;;;;;;26.56;55.87;100635.66;6040638;28;20045;-65
2022/08/18 11:22:50;;;;;;;23.38;13.70;;;;;;;25.96;55.33;100624.75;6043647;28;20041;-64
2022/08/18 11:25:45;;;;;;;22.98;13.45;;;;;;;25.93;57.45;100607.03;6035690;28;20031;-64
2022/08/18 11:28:40;;;;;;;19.37;12.40;;;;;;;26.14;57.63;100615.53;6032995;28;20092;-64
2022/08/18 11:31:36;;;;;;;22.23;13.17;;;;;;;26.47;55.39;100608.09;6032912;28;20273;-64
2022/08/18 11:34:36;;;;;;;25.47;16.63;;;;;;;26.43;55.58;100603.41;6034723;28;20301;-64
2022/08/18 11:37:42;;;;;;;17.38;12.40;;;;;;;26.48;56.91;100603.47;6039255;28;20033;-65
2022/08/18 11:40:47;;;;;;;17.90;12.45;;;;;;;27.05;53.78;100601.16;6041758;28;20100;-64
2022/08/18 11:43:42;;;;;;;13.35;8.70;;;;;;;27.58;51.83;100589.44;6043605;28;20494;-65
2022/08/18 11:46:39;;;;;;;16.40;10.20;;;;;;;27.46;50.55;100583.31;6055771;28;20041;-64
2022/08/18 11:49:36;;;;;;;12.70;9.05;;;;;;;27.30;50.92;100592.41;6045528;28;20030;-64
2022/08/18 11:52:32;;;;;;;13.65;10.05;;;;;;;26.97;55.06;100588.84;6038173;28;20165;-63
2022/08/18 11:55:30;;;;;;;11.82;9.15;;;;;;;26.72;54.56;100591.25;6041298;28;20437;-64
2022/08/18 11:58:47;;;;;;;12.45;8.93;;;;;;;26.75;52.67;100590.75;6038386;28;20048;-64
2022/08/18 12:01:49;;;;;;;275.27;188.85;;;;;;;26.84;53.69;100594.69;6027755;28;20035;-64
2022/08/18 12:04:51;;;;;;;140.18;89.45;;;;;;;26.99;53.94;100586.66;6042205;28;20022;-64
2022/08/18 12:07:46;;;;;;;24.27;16.27;;;;;;;27.52;53.65;100585.00;6038200;28;20034;-64
2022/08/18 12:10:41;;;;;;;62.17;41.33;;;;;;;28.30;52.09;100571.34;6046267;28;20044;-63
2022/08/18 12:13:37;;;;;;;113.00;84.40;;;;;;;28.04;49.99;100566.88;6038900;28;20184;-65
2022/08/18 12:16:37;;;;;;;23.50;15.33;;;;;;;28.17;49.60;100580.03;6041545;28;20360;-64
2022/08/18 12:19:32;;;;;;;20.13;14.80;;;;;;;27.68;50.57;100567.69;6038519;28;20318;-64
2022/08/18 12:22:31;;;;;;;12.50;9.63;;;;;;;27.86;50.69;100559.06;6036603;28;20065;-65
2022/08/18 12:25:26;;;;;;;13.00;8.25;;;;;;;28.26;49.10;100548.44;6041838;28;20725;-64
2022/08/18 12:28:22;;;;;;;10.97;8.07;;;;;;;28.70;47.96;100559.00;6040593;28;20134;-64
2022/08/18 12:31:17;;;;;;;13.20;9.07;;;;;;;28.62;47.25;100562.22;6043263;28;20022;-64
2022/08/18 12:34:13;;;;;;;16.23;8.97;;;;;;;28.65;47.95;100556.22;6036681;28;20292;-65
2022/08/18 12:37:09;;;;;;;13.73;8.20;;;;;;;28.79;47.21;100568.28;6045746;28;20029;-64
2022/08/18 12:40:05;;;;;;;14.13;8.93;;;;;;;28.29;47.32;100558.78;6046257;28;20038;-65
2022/08/18 12:43:00;;;;;;;11.52;7.40;;;;;;;28.26;47.37;100562.09;6045870;28;20353;-65
2022/08/18 12:45:57;;;;;;;12.97;7.87;;;;;;;27.66;48.47;100559.78;6030984;28;20074;-64
2022/08/18 12:48:53;;;;;;;11.75;8.23;;;;;;;27.50;49.06;100562.66;6032859;28;20036;-64
2022/08/18 12:51:50;;;;;;;14.23;9.25;;;;;;;27.06;50.48;100567.41;6040705;28;20050;-63
2022/08/18 12:54:46;;;;;;;12.80;9.40;;;;;;;26.92;51.64;100569.72;6044168;28;20037;-64
2022/08/18 12:57:42;;;;;;;13.38;8.05;;;;;;;26.98;50.24;100568.72;6044232;28;20065;-64
2022/08/18 13:00:39;;;;;;;10.73;7.35;;;;;;;26.83;51.02;100549.47;6041473;28;20733;-63
2022/08/18 13:03:34;;;;;;;10.45;7.30;;;;;;;26.89;50.79;100553.91;6046114;28;20041;-64
2022/08/18 13:06:32;;;;;;;11.37;8.13;;;;;;;26.67;51.23;100550.38;6042865;28;20042;-64
2022/08/18 13:09:33;;;;;;;10.80;7.40;;;;;;;26.61;52.65;100545.94;6043136;28;20066;-64
2022/08/18 13:12:28;;;;;;;11.32;7.65;;;;;;;26.77;52.33;100538.78;6036699;28;20470;-65
2022/08/18 13:15:23;;;;;;;10.43;7.20;;;;;;;26.48;53.07;100536.28;6044842;28;20042;-65
2022/08/18 13:18:18;;;;;;;11.30;7.90;;;;;;;26.39;53.08;100543.25;6032507;28;20061;-65
2022/08/18 13:21:15;;;;;;;9.70;7.10;;;;;;;26.82;52.71;100552.47;6037973;28;20052;-64
2022/08/18 13:24:10;;;;;;;13.07;8.15;;;;;;;26.82;52.37;100550.59;6040765;28;20057;-65
2022/08/18 13:27:06;;;;;;;11.47;8.20;;;;;;;26.57;52.57;100555.72;6047123;28;20026;-63
2022/08/18 13:30:04;;;;;;;10.50;7.80;;;;;;;26.43;52.89;100557.16;6043473;28;20360;-64
2022/08/18 13:33:00;;;;;;;12.90;7.40;;;;;;;26.53;52.20;100555.38;6034821;28;20777;-65
2022/08/18 13:35:55;;;;;;;9.65;6.95;;;;;;;26.53;52.36;100546.41;6035802;28;20026;-65
2022/08/18 13:38:52;;;;;;;10.82;6.60;;;;;;;26.36;52.83;100556.56;6040261;28;20034;-64
2022/08/18 13:41:50;;;;;;;9.57;6.45;;;;;;;26.36;53.47;100548.38;6037392;28;20029;-64
2022/08/18 13:44:46;;;;;;;9.88;6.93;;;;;;;26.20;52.71;100554.72;6033012;28;20030;-65
2022/08/18 13:47:41;;;;;;;8.87;6.23;;;;;;;26.11;53.78;100561.63;6036610;28;20037;-65
2022/08/18 13:50:39;;;;;;;8.88;5.90;;;;;;;26.25;54.91;100568.38;6036942;28;20385;-65
2022/08/18 13:53:36;;;;;;;8.77;6.53;;;;;;;26.17;53.80;100560.66;6041149;28;20034;-65
2022/08/18 13:56:31;;;;;;;9.65;6.13;;;;;;;26.00;53.68;100568.81;6040372;28;20034;-65
2022/08/18 13:59:30;;;;;;;9.35;6.22;;;;;;;25.70;54.58;100554.78;6039752;28;20136;-65
2022/08/18 14:02:25;;;;;;;10.80;6.43;;;;;;;25.74;55.40;100558.63;6036112;28;20045;-65
2022/08/18 14:05:21;;;;;;;8.37;6.20;;;;;;;25.88;55.14;100558.03;6029540;28;20122;-64
2022/08/18 14:08:16;;;;;;;10.23;7.38;;;;;;;25.80;53.72;100563.91;6020707;28;20042;-64